createdAt,value
2019-04-21T00:02:30.764Z,11.57
2019-04-21T00:05:54.138Z,7.97
2019-04-21T00:08:56.274Z,9.27
2019-04-21T00:12:01.454Z,8.77
2019-04-21T00:14:56.932Z,11.63
2019-04-21T00:17:57.499Z,9.17
2019-04-21T00:21:09.563Z,8.70
2019-04-21T00:24:25.127Z,8.10
2019-04-21T00:27:33.433Z,9.33
2019-04-21T00:30:44.238Z,9.87
2019-04-21T00:33:31.938Z,10.47
2019-04-21T00:36:42.863Z,12.07
2019-04-21T00:40:01.819Z,9.30
2019-04-21T00:42:59.901Z,9.97
2019-04-21T00:45:57.789Z,9.10
2019-04-21T00:49:06.086Z,12.77
2019-04-21T00:52:56.250Z,8.80
2019-04-21T00:55:59.657Z,9.73
2019-04-21T00:59:08.036Z,8.47
2019-04-21T01:02:06.456Z,10.97
2019-04-21T01:05:16.474Z,9.20
2019-04-21T01:08:13.356Z,8.37
2019-04-21T01:11:26.297Z,9.87
2019-04-21T01:14:34.355Z,10.00
2019-04-21T01:17:35.635Z,11.73
2019-04-21T01:20:18.244Z,9.03
2019-04-21T01:23:23.319Z,8.93
2019-04-21T01:26:40.996Z,9.80
2019-04-21T01:29:53.995Z,9.73
2019-04-21T01:32:59.297Z,10.57
2019-04-21T01:35:59.346Z,10.40
2019-04-21T01:39:13.188Z,11.63
2019-04-21T01:42:18.303Z,12.93
2019-04-21T01:45:15.739Z,11.00
2019-04-21T01:48:19.609Z,11.43
2019-04-21T01:51:28.383Z,11.97
2019-04-21T01:54:55.240Z,12.47
2019-04-21T01:57:57.520Z,11.10
2019-04-21T02:01:07.312Z,10.60
2019-04-21T02:04:14.137Z,10.93
2019-04-21T02:07:24.915Z,11.60
2019-04-21T02:10:35.651Z,11.83
2019-04-21T02:13:27.676Z,10.40
2019-04-21T02:16:34.291Z,11.23
2019-04-21T02:19:39.545Z,10.63
2019-04-21T02:23:07.428Z,10.87
2019-04-21T02:26:01.303Z,13.63
2019-04-21T02:29:01.904Z,10.73
2019-04-21T02:32:24.365Z,12.90
2019-04-21T02:38:29.694Z,11.97
2019-04-21T02:41:32.725Z,14.83
2019-04-21T02:44:37.583Z,12.60
2019-04-21T02:47:45.846Z,10.87
2019-04-21T02:50:47.440Z,10.70
2019-04-21T02:54:28.671Z,12.07
2019-04-21T02:57:01.415Z,10.97
2019-04-21T03:00:06.464Z,10.93
2019-04-21T03:03:13.379Z,11.20
2019-04-21T03:06:29.177Z,11.43
2019-04-21T03:09:30.984Z,10.13
2019-04-21T03:12:32.112Z,9.70
2019-04-21T03:18:50.065Z,9.23
2019-04-21T03:21:57.501Z,9.40
2019-04-21T03:37:23.488Z,10.13
2019-04-21T03:40:22.236Z,10.07
2019-04-21T03:43:26.836Z,8.87
2019-04-21T03:46:41.319Z,8.93
2019-04-21T03:52:47.814Z,7.17
2019-04-21T03:59:01.957Z,9.07
2019-04-21T04:02:10.776Z,7.50
2019-04-21T04:05:12.714Z,8.90
2019-04-21T04:08:52.509Z,9.53
2019-04-21T04:14:47.417Z,10.23
2019-04-21T04:17:40.819Z,8.93
2019-04-21T04:30:14.495Z,9.10
2019-04-21T04:33:08.163Z,9.73
2019-04-21T04:39:41.293Z,9.50
2019-04-21T04:42:40.774Z,10.40
2019-04-21T04:48:43.295Z,12.43
2019-04-21T04:51:58.657Z,9.10
2019-04-21T04:54:55.089Z,9.07
2019-04-21T04:57:59.497Z,8.70
2019-04-21T05:01:23.056Z,9.40
2019-04-21T05:04:30.241Z,10.47
2019-04-21T05:07:16.968Z,8.07
2019-04-21T05:10:17.882Z,9.67
2019-04-21T05:13:26.001Z,11.53
2019-04-21T05:19:57.378Z,9.47
2019-04-21T05:22:35.511Z,10.73
2019-04-21T05:25:30.661Z,10.10
2019-04-21T05:28:32.752Z,10.30
2019-04-21T05:31:49.587Z,10.00
2019-04-21T05:34:53.329Z,9.43
2019-04-21T05:38:03.023Z,11.50
2019-04-21T05:40:55.201Z,10.57
2019-04-21T05:44:12.522Z,9.17
2019-04-21T05:47:35.673Z,9.13
2019-04-21T05:50:16.641Z,9.20
2019-04-21T05:53:29.841Z,9.20
2019-04-21T05:56:31.864Z,8.47
2019-04-21T05:59:41.173Z,8.40
2019-04-21T06:02:47.211Z,9.87
2019-04-21T06:06:00.473Z,9.60
2019-04-21T06:08:53.661Z,8.40
2019-04-21T06:11:55.539Z,15.90
2019-04-21T06:15:22.441Z,11.57
2019-04-21T06:18:12.976Z,10.27
2019-04-21T06:21:31.386Z,9.20
2019-04-21T06:24:18.707Z,12.03
2019-04-21T06:27:27.474Z,8.80
2019-04-21T06:30:35.967Z,9.70
2019-04-21T06:33:43.162Z,9.30
2019-04-21T06:36:47.103Z,9.53
2019-04-21T06:40:16.934Z,8.77
2019-04-21T06:43:04.433Z,9.20
2019-04-21T06:46:05.775Z,9.57
2019-04-21T06:49:03.728Z,9.10
2019-04-21T06:52:31.836Z,11.23
2019-04-21T06:55:24.589Z,9.50
2019-04-21T06:58:22.445Z,10.10
2019-04-21T07:01:30.825Z,10.00
2019-04-21T07:04:31.733Z,11.65
2019-04-21T07:07:35.319Z,10.70
2019-04-21T07:10:50.767Z,10.53
2019-04-21T07:13:50.984Z,9.73
2019-04-21T07:16:56.310Z,9.13
2019-04-21T07:20:02.357Z,9.28
2019-04-21T07:23:05.814Z,9.70
2019-04-21T07:26:10.481Z,10.75
2019-04-21T07:29:18.611Z,10.20
2019-04-21T07:32:18.047Z,9.90
2019-04-21T07:35:22.183Z,11.08
2019-04-21T07:38:29.834Z,9.65
2019-04-21T07:41:24.961Z,10.15
2019-04-21T07:44:34.969Z,10.47
2019-04-21T07:47:46.338Z,8.83
2019-04-21T07:50:57.438Z,9.43
2019-04-21T07:54:13.854Z,9.50
2019-04-21T07:56:52.376Z,8.90
2019-04-21T08:03:19.383Z,9.17
2019-04-21T08:06:30.507Z,12.37
2019-04-21T08:09:28.123Z,10.37
2019-04-21T08:12:24.541Z,10.30
2019-04-21T08:15:39.520Z,9.78
2019-04-21T08:18:48.265Z,9.10
2019-04-21T08:21:55.788Z,10.80
2019-04-21T08:24:57.736Z,10.97
2019-04-21T08:27:59.813Z,9.50
2019-04-21T08:31:01.638Z,8.53
2019-04-21T08:34:13.880Z,9.93
2019-04-21T08:37:16.535Z,9.60
2019-04-21T08:40:26.853Z,9.43
2019-04-21T08:43:36.982Z,9.97
2019-04-21T08:46:31.760Z,9.63
2019-04-21T08:49:35.850Z,12.30
2019-04-21T08:52:49.029Z,9.37
2019-04-21T08:59:18.980Z,10.60
2019-04-21T09:02:23.480Z,11.17
2019-04-21T09:05:26.625Z,10.77
2019-04-21T09:08:33.213Z,10.63
2019-04-21T09:11:37.581Z,12.37
2019-04-21T09:14:44.750Z,13.33
2019-04-21T09:17:41.130Z,11.13
2019-04-21T09:20:59.895Z,12.60
2019-04-21T09:23:55.997Z,14.10
2019-04-21T09:26:57.607Z,12.83
2019-04-21T09:29:57.125Z,11.40
2019-04-21T09:32:56.879Z,11.70
2019-04-21T09:36:04.389Z,11.07
2019-04-21T09:39:14.278Z,12.13
2019-04-21T09:42:14.404Z,12.73
2019-04-21T09:45:22.360Z,12.70
2019-04-21T09:48:25.922Z,14.50
2019-04-21T09:51:30.457Z,13.90
2019-04-21T09:54:45.266Z,14.13
2019-04-21T09:57:47.754Z,12.70
2019-04-21T10:00:56.598Z,15.17
2019-04-21T10:03:56.317Z,13.27
2019-04-21T10:06:54.853Z,14.47
2019-04-21T10:09:58.360Z,17.33
2019-04-21T10:13:02.875Z,14.57
2019-04-21T10:16:08.195Z,13.60
2019-04-21T10:19:11.615Z,14.83
2019-04-21T10:22:15.088Z,17.40
2019-04-21T10:25:18.721Z,13.67
2019-04-21T10:28:23.331Z,13.47
2019-04-21T10:31:27.087Z,13.83
2019-04-21T10:34:31.473Z,16.57
2019-04-21T10:37:48.760Z,16.03
2019-04-21T10:40:41.406Z,15.93
2019-04-21T10:43:45.246Z,14.43
2019-04-21T10:46:51.859Z,17.03
2019-04-21T10:49:54.916Z,14.33
2019-04-21T10:53:00.896Z,14.63
2019-04-21T10:56:15.726Z,12.47
2019-04-21T10:59:10.250Z,14.53
2019-04-21T11:02:19.009Z,14.73
2019-04-21T11:05:22.746Z,13.17
2019-04-21T11:08:32.260Z,13.73
2019-04-21T11:11:32.094Z,14.43
2019-04-21T11:14:35.698Z,11.97
2019-04-21T11:17:40.675Z,13.30
2019-04-21T11:20:44.733Z,12.37
2019-04-21T11:23:48.379Z,13.73
2019-04-21T11:26:51.997Z,13.03
2019-04-21T11:29:55.774Z,13.63
2019-04-21T11:32:59.328Z,13.90
2019-04-21T11:36:03.595Z,11.57
2019-04-21T11:39:33.539Z,14.10
2019-04-21T11:42:31.296Z,13.70
2019-04-21T11:45:38.372Z,12.50
2019-04-21T11:48:42.161Z,14.43
2019-04-21T11:51:46.880Z,14.50
2019-04-21T11:54:50.993Z,15.30
2019-04-21T11:57:55.211Z,12.47
2019-04-21T12:01:05.465Z,12.80
2019-04-21T12:04:09.752Z,14.53
2019-04-21T12:07:13.389Z,14.87
2019-04-21T12:10:17.691Z,13.97
2019-04-21T12:13:22.380Z,12.90
2019-04-21T12:16:25.912Z,14.80
2019-04-21T12:19:30.486Z,12.63
2019-04-21T12:22:35.669Z,12.40
2019-04-21T12:25:45.208Z,11.73
2019-04-21T12:28:50.040Z,10.63
2019-04-21T12:31:55.230Z,14.13
2019-04-21T12:34:59.773Z,13.00
2019-04-21T12:38:04.751Z,11.77
2019-04-21T12:41:08.729Z,12.37
2019-04-21T12:44:12.899Z,12.67
2019-04-21T12:47:16.509Z,13.27
2019-04-21T12:50:21.491Z,15.00
2019-04-21T12:53:25.558Z,13.17
2019-04-21T12:56:29.491Z,12.93
2019-04-21T12:59:34.515Z,13.00
2019-04-21T13:02:39.705Z,11.50
2019-04-21T13:05:43.553Z,12.53
2019-04-21T13:08:55.679Z,12.00
2019-04-21T13:11:53.055Z,12.97
2019-04-21T13:14:59.138Z,11.93
2019-04-21T13:18:02.695Z,11.63
2019-04-21T13:21:07.225Z,14.23
2019-04-21T13:24:11.622Z,12.90
2019-04-21T13:27:15.569Z,11.23
2019-04-21T13:30:20.154Z,14.47
2019-04-21T13:33:25.023Z,12.07
2019-04-21T13:36:29.635Z,11.53
2019-04-21T13:40:01.520Z,12.47
2019-04-21T13:42:50.171Z,12.07
2019-04-21T13:45:49.926Z,13.20
2019-04-21T13:48:54.799Z,11.53
2019-04-21T13:51:58.344Z,13.00
2019-04-21T13:55:01.786Z,12.97
2019-04-21T13:58:06.342Z,12.10
2019-04-21T14:01:09.988Z,13.40
2019-04-21T14:04:13.730Z,12.90
2019-04-21T14:07:18.426Z,12.53
2019-04-21T14:10:23.786Z,15.13
2019-04-21T14:13:27.393Z,14.27
2019-04-21T14:16:32.046Z,11.93
2019-04-21T14:19:35.584Z,11.17
2019-04-21T14:22:40.051Z,11.40
2019-04-21T14:25:43.867Z,11.30
2019-04-21T14:28:47.392Z,11.37
2019-04-21T14:31:50.848Z,11.13
2019-04-21T14:34:54.308Z,11.50
2019-04-21T14:37:58.437Z,10.83
2019-04-21T14:41:02.243Z,12.30
2019-04-21T14:44:06.902Z,9.93
2019-04-21T14:47:20.945Z,10.93
2019-04-21T14:50:34.974Z,9.17
2019-04-21T14:53:56.345Z,10.80
2019-04-21T14:57:00.937Z,10.07
2019-04-21T15:00:13.372Z,12.07
2019-04-21T15:03:17.059Z,9.80
2019-04-21T15:06:21.254Z,10.33
2019-04-21T15:09:25.275Z,9.73
2019-04-21T15:12:29.899Z,11.13
2019-04-21T15:15:34.064Z,10.50
2019-04-21T15:18:38.893Z,13.63
2019-04-21T15:21:42.569Z,9.40
2019-04-21T15:24:45.998Z,9.90
2019-04-21T15:27:50.666Z,9.73
2019-04-21T15:30:54.475Z,9.97
2019-04-21T15:33:59.091Z,9.90
2019-04-21T15:37:04.016Z,11.57
2019-04-21T15:40:21.091Z,9.77
2019-04-21T15:43:13.077Z,11.50
2019-04-21T15:46:16.547Z,11.07
2019-04-21T15:49:20.810Z,10.90
2019-04-21T15:52:25.529Z,9.00
2019-04-21T15:55:37.029Z,9.80
2019-04-21T15:58:42.884Z,10.90
2019-04-21T16:01:51.025Z,11.73
2019-04-21T16:04:54.875Z,12.07
2019-04-21T16:07:58.408Z,9.27
2019-04-21T16:11:04.608Z,10.90
2019-04-21T16:14:08.083Z,8.97
2019-04-21T16:17:11.745Z,11.63
2019-04-21T16:20:17.538Z,8.40
2019-04-21T16:23:22.510Z,9.13
2019-04-21T16:26:26.753Z,12.13
2019-04-21T16:29:31.230Z,9.00
2019-04-21T16:32:36.004Z,9.63
2019-04-21T16:35:39.978Z,10.80
2019-04-21T16:38:43.791Z,11.27
2019-04-21T16:41:47.461Z,9.67
2019-04-21T16:44:50.897Z,10.03
2019-04-21T16:47:55.618Z,9.47
2019-04-21T16:51:01.545Z,9.57
2019-04-21T16:54:08.181Z,9.73
2019-04-21T16:57:29.948Z,11.37
2019-04-21T17:00:42.107Z,10.23
2019-04-21T17:03:40.135Z,10.93
2019-04-21T17:06:44.946Z,10.10
2019-04-21T17:09:48.680Z,10.43
2019-04-21T17:12:53.615Z,11.63
2019-04-21T17:16:16.694Z,10.70
2019-04-21T17:19:13.512Z,14.03
2019-04-21T17:22:10.109Z,12.67
2019-04-21T17:25:14.384Z,10.97
2019-04-21T17:28:17.815Z,10.37
2019-04-21T17:31:22.366Z,11.37
2019-04-21T17:34:29.774Z,10.00
2019-04-21T17:37:34.035Z,10.67
2019-04-21T17:40:38.000Z,11.07
2019-04-21T17:43:41.684Z,10.60
2019-04-21T17:46:51.576Z,10.07
2019-04-21T17:49:52.022Z,10.57
2019-04-21T17:53:04.967Z,9.40
2019-04-21T17:56:33.842Z,10.10
2019-04-21T17:59:45.127Z,10.40
2019-04-21T18:02:41.314Z,10.13
2019-04-21T18:05:37.257Z,9.97
2019-04-21T18:08:50.677Z,10.47
2019-04-21T18:11:51.044Z,10.63
2019-04-21T18:14:50.245Z,9.17
2019-04-21T18:17:42.755Z,9.10
2019-04-21T18:20:48.079Z,11.33
2019-04-21T18:24:04.866Z,8.47
2019-04-21T18:27:02.478Z,9.00
2019-04-21T18:30:26.452Z,11.17
2019-04-21T18:33:36.665Z,9.63
2019-04-21T18:36:48.138Z,11.70
2019-04-21T18:40:03.832Z,11.57
2019-04-21T18:43:38.316Z,10.73
2019-04-21T18:46:34.065Z,10.27
2019-04-21T18:49:24.687Z,12.80
2019-04-21T18:52:45.219Z,10.27
2019-04-21T18:55:39.682Z,9.93
2019-04-21T18:58:40.296Z,10.37
2019-04-21T19:01:51.508Z,12.97
2019-04-21T19:04:53.619Z,10.37
2019-04-21T19:08:08.980Z,14.23
2019-04-21T19:11:19.035Z,13.43
2019-04-21T19:20:37.278Z,14.87
2019-04-21T19:24:01.822Z,13.30
2019-04-21T19:26:55.897Z,12.73
2019-04-21T19:29:58.317Z,17.00
2019-04-21T19:32:59.479Z,15.13
2019-04-21T19:35:43.570Z,13.40
2019-04-21T19:38:58.634Z,13.40
2019-04-21T19:42:05.658Z,12.67
2019-04-21T19:45:17.608Z,12.70
2019-04-21T19:48:24.072Z,12.63
2019-04-21T19:51:26.388Z,12.80
2019-04-21T19:54:25.176Z,13.03
2019-04-21T19:57:21.178Z,13.37
2019-04-21T20:00:26.466Z,11.87
2019-04-21T20:03:30.589Z,10.40
2019-04-21T20:06:48.955Z,11.17
2019-04-21T20:09:56.590Z,10.70
2019-04-21T20:13:03.361Z,11.30
2019-04-21T20:16:06.577Z,10.10
2019-04-21T20:19:00.560Z,9.93
2019-04-21T20:22:00.932Z,10.07
2019-04-21T20:25:15.221Z,9.80
2019-04-21T20:28:29.454Z,10.13
2019-04-21T20:31:37.294Z,9.37
2019-04-21T20:34:50.312Z,9.07
2019-04-21T20:37:42.217Z,9.27
2019-04-21T20:40:45.921Z,9.17
2019-04-21T20:44:02.243Z,9.63
2019-04-21T20:46:59.693Z,9.03
2019-04-21T20:50:03.353Z,8.10
2019-04-21T20:53:11.255Z,7.90
2019-04-21T20:56:11.474Z,9.07
2019-04-21T20:59:19.415Z,8.50
2019-04-21T21:02:26.423Z,8.17
2019-04-21T21:05:27.673Z,8.23
2019-04-21T21:08:40.038Z,6.83
2019-04-21T21:11:54.031Z,7.03
2019-04-21T21:14:45.879Z,7.33
2019-04-21T21:18:01.557Z,8.20
2019-04-21T21:20:59.070Z,6.63
2019-04-21T21:24:05.160Z,7.00
2019-04-21T21:27:10.432Z,7.10
2019-04-21T21:30:16.069Z,8.27
2019-04-21T21:33:22.780Z,6.87
2019-04-21T21:36:27.432Z,7.27
2019-04-21T21:39:40.470Z,6.87
2019-04-21T21:42:27.527Z,10.37
2019-04-21T21:45:27.535Z,6.73
2019-04-21T21:48:40.682Z,6.83
2019-04-21T21:51:47.229Z,7.30
2019-04-21T21:54:40.218Z,6.90
2019-04-21T21:57:48.665Z,9.60
2019-04-21T22:00:56.983Z,7.60
2019-04-21T22:04:07.203Z,9.10
2019-04-21T22:07:07.220Z,7.60
2019-04-21T22:10:10.315Z,7.83
2019-04-21T22:13:17.750Z,7.60
2019-04-21T22:16:21.290Z,7.57
2019-04-21T22:19:41.563Z,6.73
2019-04-21T22:22:39.013Z,7.67
2019-04-21T22:25:37.958Z,8.83
2019-04-21T22:28:40.054Z,7.73
2019-04-21T22:31:45.122Z,8.50
2019-04-21T22:34:54.757Z,7.47
2019-04-21T22:38:10.564Z,7.83
2019-04-21T22:41:11.897Z,8.07
2019-04-21T22:44:05.106Z,7.37
2019-04-21T22:47:14.119Z,6.80
2019-04-21T22:50:26.503Z,7.37
2019-04-21T22:53:36.230Z,7.73
2019-04-21T22:56:36.101Z,7.03
2019-04-21T22:59:40.609Z,7.77
2019-04-21T23:02:44.240Z,7.53
2019-04-21T23:05:50.026Z,7.27
2019-04-21T23:08:53.092Z,8.50
2019-04-21T23:11:59.329Z,8.83
2019-04-21T23:15:06.534Z,7.40
2019-04-21T23:18:23.458Z,8.17
2019-04-21T23:21:24.811Z,8.60
2019-04-21T23:24:43.767Z,8.90
2019-04-21T23:27:35.276Z,7.80
2019-04-21T23:30:50.248Z,8.57
2019-04-21T23:33:32.902Z,8.00
2019-04-21T23:36:41.857Z,7.93
2019-04-21T23:39:41.740Z,9.13
2019-04-21T23:42:45.529Z,8.90
2019-04-21T23:45:52.003Z,10.20
2019-04-21T23:49:12.190Z,8.10
2019-04-21T23:52:05.366Z,8.03
2019-04-21T23:55:07.418Z,9.07
2019-04-21T23:58:17.824Z,10.10
